Preview of NWS' New Version of Forecast
This preview is not operational and should not be used for support decisions.

Terminal Aerodrome Forecast (TAF)

Issued by National Weather Service (NWS)

                            
525 
FTUS42 KKEY 190805 AAA
TAFEYW
TAF AMD
KEYW 190805Z 1908/2006 07009KT P6SM SCT020 SCT030
      TEMPO 1908/1912 BKN025
     FM191400 08012G21KT P6SM SCT025
     FM191900 11015G22KT P6SM FEW030 BKN050=